Terminal Aerodrome Forecast
Issued by NWS Wakefield, VA

Home | Current Version | Previous Version | Text Only | Print | Product List | Glossary On
Versions: 1 2 3 4 5 6 7 8 9 10 11 12 13 14
000
FTUS41 KAKQ 231100
TAFRIC
TAF
KRIC 231133Z 2312/2412 04006KT P6SM SCT005 OVC060
      TEMPO 2312/2315 4SM -RA BKN005
     FM231600 07007KT P6SM BKN040
     FM240000 06005KT P6SM BKN025=

USA.gov is the U.S. government's official web portal to all federal, state and local government web resources and services.